Time;durP1;ratioP1;P1;durP2;ratioP2;P2;SDS_P1;SDS_P2;PMS_P1;PMS_P2;Temp;Humidity;BMP_temperature;BMP_pressure;BME280_temperature;BME280_humidity;BME280_pressure;Samples;Min_cycle;Max_cycle;Signal;HPM_P1;HPM_P2
2023/04/27 00:02:43;;;;;;;8.20;3.75;;;;;;;4.75;76.38;102029.66;5065154;28;20013;-96
2023/04/27 00:05:48;;;;;;;6.68;3.30;;;;;;;4.67;77.05;102031.72;5079359;28;20025;-96
2023/04/27 00:09:04;;;;;;;;;;;;;;;;;;;;;
2023/04/27 00:11:37;;;;;;;7.90;4.15;;;;;;;4.56;76.16;102025.84;5071075;28;20020;-96
2023/04/27 00:16:39;;;;;;;10.05;4.55;;;;;;;4.50;76.59;102025.44;5360545;22;20057;-64
2023/04/27 00:19:04;;;;;;;8.05;4.18;;;;;;;4.46;76.36;102021.75;5263374;22;20079;-64
2023/04/27 00:21:30;;;;;;;9.13;4.45;;;;;;;4.43;77.14;102028.38;5239350;22;20084;-64
2023/04/27 00:23:55;;;;;;;8.32;4.25;;;;;;;4.41;77.19;102022.25;5238948;22;20071;-64
2023/04/27 00:26:21;;;;;;;9.98;4.40;;;;;;;4.37;77.24;102020.25;5200762;22;20114;-65
2023/04/27 00:28:46;;;;;;;8.02;3.95;;;;;;;4.34;77.15;102029.56;5299490;22;20060;-64
2023/04/27 00:31:12;;;;;;;9.38;4.10;;;;;;;4.31;77.38;102029.34;5412592;22;20027;-64
2023/04/27 00:33:37;;;;;;;9.00;4.18;;;;;;;4.29;77.77;102024.91;5385114;22;20352;-64
2023/04/27 00:36:03;;;;;;;7.35;3.85;;;;;;;4.26;77.83;102024.66;5415152;22;20024;-64
2023/04/27 00:38:28;;;;;;;6.82;3.80;;;;;;;4.21;77.65;102019.19;5339658;22;20079;-64
2023/04/27 00:48:30;;;;;;;8.52;4.57;;;;;;;4.10;78.11;102026.22;5348923;22;20050;-64
2023/04/27 00:51:21;;;;;;;11.20;4.80;;;;;;;4.11;77.92;102027.09;5365884;22;20068;31
2023/04/27 00:53:47;;;;;;;9.15;4.82;;;;;;;4.06;77.63;102024.19;4973698;28;20588;-64
2023/04/27 00:56:13;;;;;;;8.98;4.53;;;;;;;4.03;77.82;102024.00;5043423;22;20045;-64
2023/04/27 01:01:11;;;;;;;6.95;3.63;;;;;;;3.98;79.21;102020.19;5387112;22;20546;-64
2023/04/27 01:03:36;;;;;;;6.55;3.50;;;;;;;3.95;79.61;102026.06;5373043;22;20062;-64
2023/04/27 01:06:02;;;;;;;8.57;3.97;;;;;;;3.93;79.99;102014.72;5332647;22;20101;-64
2023/04/27 01:11:00;;;;;;;8.43;3.95;;;;;;;3.90;80.51;102011.03;5352612;22;20464;-64
2023/04/27 01:13:25;;;;;;;8.77;3.90;;;;;;;3.89;80.08;102017.88;5139881;22;20057;-64
2023/04/27 01:15:50;;;;;;;8.23;3.78;;;;;;;3.87;80.52;102018.53;5020265;28;20036;-64
2023/04/27 01:18:16;;;;;;;8.13;4.45;;;;;;;3.83;79.90;102025.19;5018974;28;20646;-64
2023/04/27 01:23:14;;;;;;;8.82;4.25;;;;;;;3.74;79.67;102028.00;5213826;22;20047;-64
2023/04/27 01:25:39;;;;;;;9.82;5.00;;;;;;;3.71;79.20;102032.94;5144393;22;20792;-64
2023/04/27 01:28:05;;;;;;;8.82;4.43;;;;;;;3.67;79.47;102027.47;5160670;22;20033;-64
2023/04/27 01:30:30;;;;;;;8.55;4.38;;;;;;;3.62;79.90;102025.47;5277650;22;20020;-64
2023/04/27 01:35:25;;;;;;;8.88;4.53;;;;;;;3.57;80.16;102037.13;5319974;22;20020;-64
2023/04/27 01:37:50;;;;;;;9.40;4.32;;;;;;;3.54;80.50;102031.75;5386937;22;20111;-64
2023/04/27 01:40:16;;;;;;;9.18;4.47;;;;;;;3.45;81.66;102018.22;5427929;22;20054;-64
2023/04/27 01:42:41;;;;;;;8.40;3.97;;;;;;;3.40;81.73;102027.28;5216301;22;20127;-64
2023/04/27 01:45:07;;;;;;;9.27;3.65;;;;;;;3.38;81.97;102023.72;5219196;22;20844;-64
2023/04/27 01:47:33;;;;;;;6.70;3.47;;;;;;;3.36;82.44;102020.13;5107663;22;20057;-65
2023/04/27 01:49:58;;;;;;;7.90;3.70;;;;;;;3.37;82.65;102014.19;5114419;22;20056;-64
2023/04/27 01:52:23;;;;;;;8.27;4.28;;;;;;;3.39;82.44;102020.34;5016432;28;20528;-64
2023/04/27 01:54:49;;;;;;;8.82;4.28;;;;;;;3.39;81.60;102017.75;5349695;22;20064;-65
2023/04/27 01:57:14;;;;;;;9.07;4.70;;;;;;;3.37;81.56;102016.78;5395301;22;20057;-64
2023/04/27 01:59:39;;;;;;;8.38;4.45;;;;;;;3.31;81.56;102006.91;5388008;22;20032;-65
2023/04/27 02:02:05;;;;;;;8.32;4.50;;;;;;;3.29;81.58;102009.38;5262003;22;20429;-64
2023/04/27 02:06:55;;;;;;;10.23;4.72;;;;;;;3.29;81.67;102008.50;5343056;22;20061;-64
2023/04/27 02:09:21;;;;;;;8.57;4.35;;;;;;;3.26;81.85;102018.59;5253671;22;20115;-64
2023/04/27 02:11:46;;;;;;;11.25;4.50;;;;;;;3.23;81.62;102008.03;5330524;22;20052;-64
2023/04/27 02:14:11;;;;;;;9.57;5.05;;;;;;;3.22;81.75;102009.72;5231065;22;20062;-64
2023/04/27 02:16:37;;;;;;;7.18;4.03;;;;;;;3.21;82.39;102005.34;5155805;22;20049;-64
2023/04/27 02:19:03;;;;;;;11.45;4.80;;;;;;;3.19;82.48;102011.19;5275557;22;20809;-64
2023/04/27 02:21:28;;;;;;;7.88;3.47;;;;;;;3.07;82.39;102006.03;5329374;22;20084;-64
2023/04/27 02:26:28;;;;;;;8.68;4.47;;;;;;;3.00;82.56;102004.72;5342921;22;21116;-64
2023/04/27 02:31:28;;;;;;;8.75;4.68;;;;;;;2.94;82.00;101989.72;5186456;22;20416;-64
2023/04/27 02:33:53;;;;;;;8.85;4.55;;;;;;;2.95;82.37;101994.09;5434082;22;20032;-64
2023/04/27 02:36:18;;;;;;;9.70;4.10;;;;;;;2.95;82.93;101990.59;5043212;28;20037;-63
2023/04/27 02:38:44;;;;;;;7.70;3.75;;;;;;;2.95;83.00;101994.09;5123512;22;20820;-64
2023/04/27 02:41:09;;;;;;;7.72;4.13;;;;;;;2.98;82.65;101997.66;5283021;22;20021;-64
2023/04/27 02:43:34;;;;;;;9.65;3.70;;;;;;;2.99;82.64;101995.19;5045703;28;20511;-65
2023/04/27 02:46:03;;;;;;;7.68;3.97;;;;;;;2.98;83.10;101989.94;5210022;22;20062;-64
2023/04/27 02:48:31;;;;;;;8.07;4.72;;;;;;;2.98;83.26;101993.38;5216102;22;20048;-64
2023/04/27 02:50:57;;;;;;;8.98;3.83;;;;;;;2.94;83.66;101987.13;5113326;22;20075;-64
2023/04/27 02:53:22;;;;;;;9.02;4.32;;;;;;;2.89;84.19;101993.59;5126122;23;20008;-64
2023/04/27 02:58:22;;;;;;;10.73;4.93;;;;;;;2.88;83.53;101999.56;5141844;22;20061;-63
2023/04/27 03:00:53;;;;;;;13.18;4.90;;;;;;;2.86;83.43;101998.53;5410322;22;20117;-63
2023/04/27 03:03:18;;;;;;;9.40;4.90;;;;;;;2.84;83.40;101994.97;5123251;22;20507;-64
2023/04/27 03:05:43;;;;;;;9.10;4.47;;;;;;;2.82;83.13;101996.53;5109659;22;20049;-64
2023/04/27 03:08:08;;;;;;;8.95;4.40;;;;;;;2.80;83.18;101985.22;5453137;22;20115;-63
2023/04/27 03:13:04;;;;;;;10.18;4.90;;;;;;;2.74;82.82;101985.66;5110922;22;20065;-64
2023/04/27 03:18:05;;;;;;;9.63;5.10;;;;;;;2.70;83.11;101985.34;5290397;22;20274;-64
2023/04/27 03:20:30;;;;;;;11.00;5.70;;;;;;;2.66;82.56;101991.03;5021861;28;20147;-63
2023/04/27 03:22:56;;;;;;;10.32;5.43;;;;;;;2.61;82.87;101986.44;5021541;28;20056;-63
2023/04/27 03:27:55;;;;;;;10.80;4.80;;;;;;;2.63;83.30;101995.97;5205271;22;20060;-64
2023/04/27 03:30:21;;;;;;;11.90;5.18;;;;;;;2.60;82.83;101994.94;5261381;22;20039;-63
2023/04/27 03:32:46;;;;;;;12.68;5.43;;;;;;;2.58;82.65;101998.19;5193534;22;20055;-63
2023/04/27 03:37:44;;;;;;;10.98;5.20;;;;;;;2.54;82.60;101996.16;5238934;22;20057;-64
2023/04/27 03:40:11;;;;;;;11.23;5.07;;;;;;;2.52;83.00;102008.00;5296736;22;20084;-63
2023/04/27 03:42:36;;;;;;;9.68;5.38;;;;;;;2.50;82.66;102012.16;5052410;28;20114;-63
2023/04/27 03:45:01;;;;;;;10.90;5.50;;;;;;;2.49;83.49;102007.78;5052207;28;20135;-63
2023/04/27 03:47:27;;;;;;;11.63;5.30;;;;;;;2.47;83.29;102009.34;5408703;22;20157;-64
2023/04/27 03:49:52;;;;;;;13.23;5.85;;;;;;;2.46;83.08;102007.56;5027354;28;20041;-63
2023/04/27 03:52:17;;;;;;;11.25;5.53;;;;;;;2.44;83.03;102004.88;5474467;22;20053;-63
2023/04/27 03:57:16;;;;;;;12.27;5.72;;;;;;;2.43;83.79;102005.63;5011789;28;20042;-63
2023/04/27 03:59:41;;;;;;;12.60;6.13;;;;;;;2.41;82.90;102010.66;5315947;22;20075;-64
2023/04/27 04:02:08;;;;;;;11.73;5.82;;;;;;;2.39;83.62;102013.91;5137807;22;20051;-63
2023/04/27 04:07:08;;;;;;;11.80;5.57;;;;;;;2.32;84.10;102015.13;5143798;22;20106;-63
2023/04/27 04:09:34;;;;;;;12.25;5.57;;;;;;;2.32;83.75;102016.78;5046711;28;20502;-63
2023/04/27 04:11:59;;;;;;;11.25;5.85;;;;;;;2.29;84.06;102009.75;5045724;28;20105;-64
2023/04/27 04:14:26;;;;;;;14.02;6.55;;;;;;;2.31;83.75;102021.03;5214284;22;20053;-64
2023/04/27 04:16:51;;;;;;;13.73;5.65;;;;;;;2.29;84.01;102007.19;5357893;22;20069;-64
2023/04/27 04:19:16;;;;;;;13.82;6.43;;;;;;;2.27;83.52;102013.88;5277618;22;20064;-64
2023/04/27 04:21:41;;;;;;;16.75;6.40;;;;;;;2.24;84.05;102022.25;5478771;22;20122;-63
2023/04/27 04:24:07;;;;;;;13.00;6.13;;;;;;;2.24;84.39;102021.34;5273300;22;20135;-63
2023/04/27 04:26:32;;;;;;;13.77;6.18;;;;;;;2.24;84.17;102024.81;5190453;22;20419;-64
2023/04/27 04:28:57;;;;;;;11.40;5.93;;;;;;;2.24;83.87;102026.50;5052140;28;20029;-64
2023/04/27 04:31:23;;;;;;;10.98;5.22;;;;;;;2.23;84.11;102025.63;5048532;28;20575;-64
2023/04/27 04:33:48;;;;;;;9.18;4.43;;;;;;;2.23;84.57;102025.63;5184722;22;20053;-64
2023/04/27 04:36:14;;;;;;;11.48;4.63;;;;;;;2.25;84.58;102028.31;5260277;22;20309;-64
2023/04/27 04:38:39;;;;;;;10.75;4.93;;;;;;;2.22;83.99;102028.94;5249942;22;20058;-64
2023/04/27 04:41:04;;;;;;;10.20;4.95;;;;;;;2.23;84.51;102032.41;5260062;22;20104;-64
2023/04/27 04:48:35;;;;;;;11.70;5.78;;;;;;;2.20;84.66;102045.97;4993188;22;20087;-64
2023/04/27 04:51:00;;;;;;;11.95;5.35;;;;;;;2.19;84.54;102044.16;5038813;28;20025;-64
2023/04/27 04:56:12;;;;;;;13.35;6.35;;;;;;;2.24;85.24;102040.25;5175990;22;20520;-63
2023/04/27 05:01:07;;;;;;;12.23;6.63;;;;;;;2.29;85.28;102045.75;5212099;22;20087;-64
2023/04/27 05:06:01;;;;;;;14.18;5.78;;;;;;;2.35;84.75;102047.91;5185049;22;20023;-63
2023/04/27 05:08:28;;;;;;;11.45;5.90;;;;;;;2.34;85.06;102046.09;5155649;22;20056;-96
2023/04/27 05:10:57;;;;;;;13.45;6.20;;;;;;;2.35;85.40;102045.34;5052083;28;20029;-96
2023/04/27 05:13:39;;;;;;;11.73;5.63;;;;;;;2.37;85.64;102046.34;5054846;28;20017;-96
2023/04/27 05:16:05;;;;;;;11.95;6.10;;;;;;;2.38;85.43;102055.84;5027905;23;20092;-64
2023/04/27 05:18:30;;;;;;;11.63;5.78;;;;;;;2.37;85.95;102059.19;5313756;22;20134;-64
2023/04/27 05:20:56;;;;;;;11.45;6.05;;;;;;;2.36;86.04;102049.69;5407698;22;21364;-64
2023/04/27 05:25:46;;;;;;;12.75;6.18;;;;;;;2.39;86.40;102055.97;5228161;22;20069;-64
2023/04/27 05:28:11;;;;;;;11.50;6.03;;;;;;;2.41;86.28;102062.13;5287042;22;20454;-64
2023/04/27 05:33:34;;;;;;;14.15;6.22;;;;;;;2.49;86.13;102057.56;5194671;23;20077;-64
2023/04/27 05:35:59;;;;;;;11.10;5.65;;;;;;;2.52;86.93;102051.75;4979724;28;20121;-64
2023/04/27 05:40:58;;;;;;;12.25;5.85;;;;;;;2.58;86.74;102054.81;5066676;22;20454;-64
2023/04/27 05:43:24;;;;;;;13.23;6.43;;;;;;;2.61;86.68;102066.19;5174610;23;20061;-64
2023/04/27 05:45:51;;;;;;;13.32;5.97;;;;;;;2.66;86.91;102068.22;5353701;22;20080;-64
2023/04/27 05:48:17;;;;;;;12.25;6.30;;;;;;;2.70;86.85;102070.25;5229391;22;20061;-64
2023/04/27 05:53:17;;;;;;;17.33;8.00;;;;;;;2.75;87.63;102067.25;5428809;22;20099;-64
2023/04/27 05:55:42;;;;;;;18.25;8.52;;;;;;;2.79;87.30;102073.50;5297274;22;20134;-64
2023/04/27 05:58:07;;;;;;;13.57;7.03;;;;;;;2.83;87.78;102062.66;5169790;22;20039;-64
2023/04/27 06:00:33;;;;;;;10.77;5.95;;;;;;;2.90;88.30;102064.91;5265759;23;20575;-64
2023/04/27 06:03:00;;;;;;;13.02;6.28;;;;;;;2.95;88.38;102066.16;5144912;22;20144;-63
2023/04/27 06:07:56;;;;;;;13.15;6.40;;;;;;;3.12;88.69;102066.50;5125895;23;20066;-64
2023/04/27 06:10:22;;;;;;;13.50;6.18;;;;;;;3.20;88.53;102074.78;5002358;28;20720;-64
2023/04/27 06:15:22;;;;;;;12.25;6.70;;;;;;;3.35;88.66;102069.88;5236815;22;20070;-64
2023/04/27 06:17:48;;;;;;;13.05;6.35;;;;;;;3.44;89.00;102061.09;5334985;22;20042;-64
2023/04/27 06:20:13;;;;;;;12.70;5.93;;;;;;;3.56;89.29;102070.50;5185349;22;21367;-64
2023/04/27 06:22:38;;;;;;;11.13;5.82;;;;;;;3.69;88.90;102057.72;5179286;23;20046;-64
2023/04/27 06:27:37;;;;;;;11.45;5.60;;;;;;;3.99;87.94;102058.97;5376549;22;20797;-64
2023/04/27 06:30:03;;;;;;;19.08;9.85;;;;;;;4.14;88.48;102059.16;5306003;23;20057;-64
2023/04/27 06:34:54;;;;;;;11.40;5.43;;;;;;;4.42;86.24;102060.13;5210890;22;20062;-64
2023/04/27 06:37:19;;;;;;;11.52;5.63;;;;;;;4.56;86.03;102055.94;5008250;28;20064;-64
2023/04/27 06:39:45;;;;;;;12.73;5.35;;;;;;;4.69;84.33;102056.88;5011056;28;20033;-64
2023/04/27 06:42:10;;;;;;;12.05;5.60;;;;;;;4.84;84.86;102066.44;5009116;28;20037;-64
2023/04/27 06:47:11;;;;;;;12.57;6.00;;;;;;;5.11;83.12;102056.13;5155209;23;20073;-64
2023/04/27 06:49:36;;;;;;;13.07;5.82;;;;;;;5.21;80.50;102059.41;5313984;22;20433;-64
2023/04/27 06:52:01;;;;;;;9.75;5.40;;;;;;;5.31;81.24;102063.47;5190691;22;20081;-64
2023/04/27 06:54:27;;;;;;;11.90;5.65;;;;;;;5.45;81.43;102058.31;5373916;22;20029;-64
2023/04/27 06:59:24;;;;;;;11.25;5.35;;;;;;;5.69;80.89;102054.69;5433634;22;20111;-64
2023/04/27 07:01:50;;;;;;;12.13;5.47;;;;;;;5.89;79.25;102058.53;5333977;22;20065;-64
2023/04/27 07:06:51;;;;;;;13.73;6.03;;;;;;;6.16;78.17;102044.66;5093548;22;20050;-96
2023/04/27 07:09:27;;;;;;;12.93;5.93;;;;;;;6.24;78.95;102044.31;4999553;28;20611;-96
2023/04/27 07:11:53;;;;;;;15.82;6.13;;;;;;;6.44;80.05;102050.69;5247632;23;20061;-64
2023/04/27 07:14:18;;;;;;;23.67;14.82;;;;;;;6.63;79.00;102044.00;5141381;23;20061;-65
2023/04/27 07:16:43;;;;;;;16.02;7.78;;;;;;;6.73;77.62;102042.84;5178548;22;20219;-64
2023/04/27 07:19:09;;;;;;;11.40;5.88;;;;;;;6.75;75.17;102036.94;4993968;28;20424;-64
2023/04/27 07:21:35;;;;;;;11.45;5.63;;;;;;;6.83;75.29;102047.75;5182766;22;20062;-64
2023/04/27 07:31:28;;;;;;;12.63;5.85;;;;;;;7.30;75.31;102053.91;5018721;23;20050;-64
2023/04/27 07:33:54;;;;;;;10.90;5.97;;;;;;;7.44;73.42;102044.28;5116611;22;20045;-64
2023/04/27 07:36:19;;;;;;;12.55;6.60;;;;;;;7.52;72.03;102044.69;4982673;28;20096;-64
2023/04/27 07:38:44;;;;;;;13.90;6.10;;;;;;;7.60;71.72;102043.44;5116462;22;20054;-64
2023/04/27 07:41:10;;;;;;;12.95;6.28;;;;;;;7.76;73.40;102048.66;5394971;22;20057;-64
2023/04/27 07:49:12;;;;;;;12.40;6.38;;;;;;;8.07;72.07;102047.72;5081180;22;20036;31
2023/04/27 07:51:38;;;;;;;15.02;7.13;;;;;;;8.19;71.45;102047.47;5110689;22;20058;-64
2023/04/27 07:54:04;;;;;;;14.18;6.53;;;;;;;8.30;70.39;102050.63;5174954;23;20130;-64
2023/04/27 07:56:29;;;;;;;13.68;6.40;;;;;;;8.37;69.19;102050.09;5376506;23;20357;-65
2023/04/27 07:58:55;;;;;;;13.73;6.10;;;;;;;8.45;70.04;102051.44;5151052;23;20234;-65
2023/04/27 08:01:20;;;;;;;13.45;6.28;;;;;;;8.52;69.94;102037.97;5132402;22;20066;-64
2023/04/27 08:03:46;;;;;;;12.13;6.50;;;;;;;8.57;67.88;102043.38;5193992;22;20472;-64
2023/04/27 08:06:11;;;;;;;13.63;6.27;;;;;;;8.63;68.85;102041.13;5122964;22;20145;-64
2023/04/27 08:08:36;;;;;;;11.57;6.07;;;;;;;8.75;69.62;102039.94;5049728;22;20496;-95
2023/04/27 08:11:02;;;;;;;12.43;5.95;;;;;;;8.84;66.33;102043.88;5013947;23;20058;-64
2023/04/27 08:13:32;;;;;;;12.45;5.57;;;;;;;8.92;66.71;102043.38;5193001;22;1065781;-63
2023/04/27 08:15:58;;;;;;;231.43;123.43;;;;;;;9.10;68.42;102044.28;5114584;22;20687;-64
2023/04/27 08:18:25;;;;;;;9.85;5.63;;;;;;;9.23;64.20;102046.66;5224376;22;20177;-64
2023/04/27 08:23:20;;;;;;;12.07;5.78;;;;;;;9.42;64.86;102047.56;5257130;22;20074;-64
2023/04/27 08:25:45;;;;;;;11.48;5.43;;;;;;;9.48;62.61;102042.63;4995900;28;20022;-64
2023/04/27 08:30:45;;;;;;;11.02;5.43;;;;;;;9.58;63.38;102039.66;5019281;23;20069;-96
2023/04/27 08:33:13;;;;;;;8.90;4.75;;;;;;;9.67;60.29;102022.69;5009728;28;20487;-95
2023/04/27 08:35:44;;;;;;;10.48;5.47;;;;;;;9.67;62.10;102022.69;4990684;28;20030;-95
2023/04/27 08:38:09;;;;;;;10.38;4.88;;;;;;;9.69;61.53;102011.53;4991225;28;20025;-96
2023/04/27 08:40:35;;;;;;;10.60;5.65;;;;;;;9.67;58.06;102012.28;4991664;28;20044;-95
2023/04/27 08:43:00;;;;;;;9.02;5.10;;;;;;;9.77;63.23;102018.81;5005239;28;20025;-96
2023/04/27 08:45:26;;;;;;;8.65;5.00;;;;;;;9.84;59.12;102003.53;4989754;28;20034;-96
2023/04/27 08:47:55;;;;;;;11.40;5.35;;;;;;;9.96;60.35;102002.31;4994927;28;20026;-96
2023/04/27 08:50:22;;;;;;;9.70;5.18;;;;;;;10.02;59.03;102010.38;4989517;28;20116;-96
2023/04/27 08:52:53;;;;;;;9.80;5.03;;;;;;;10.14;61.71;102012.63;4990677;28;20029;-96
2023/04/27 08:55:20;;;;;;;11.82;5.47;;;;;;;10.39;60.76;102014.66;4970331;28;20038;-96
2023/04/27 08:58:00;;;;;;;9.63;4.80;;;;;;;10.49;58.30;102016.81;4968300;28;20038;-95
2023/04/27 09:00:25;;;;;;;;;;;;;;;10.63;61.88;102019.13;4968032;28;20105;-96
2023/04/27 09:02:51;;;;;;;11.52;4.68;;;;;;;10.69;58.87;102014.16;4969297;28;19980;-96
2023/04/27 09:05:24;;;;;;;11.23;5.18;;;;;;;10.84;59.95;102004.38;4966744;28;20038;-96
2023/04/27 09:08:01;;;;;;;9.65;5.20;;;;;;;10.87;56.47;102012.31;4966928;28;20085;-95
2023/04/27 09:10:30;;;;;;;9.13;5.40;;;;;;;10.86;56.96;102007.94;4966238;28;20068;-95
2023/04/27 09:12:59;;;;;;;11.30;5.38;;;;;;;10.87;56.26;102012.31;4965064;28;20022;-95
2023/04/27 09:15:29;;;;;;;9.38;5.32;;;;;;;10.91;58.84;102014.22;4965503;28;20034;-96
2023/04/27 09:17:57;;;;;;;10.25;4.78;;;;;;;11.02;55.97;102006.84;4966653;28;20054;-96
2023/04/27 09:20:25;;;;;;;9.35;4.90;;;;;;;11.13;53.69;102021.19;4965695;28;20041;-96
2023/04/27 09:22:54;;;;;;;8.30;5.00;;;;;;;11.13;52.65;102008.16;4966364;28;20130;-96
2023/04/27 09:25:31;;;;;;;9.18;5.35;;;;;;;11.32;55.48;102014.09;4966144;28;20156;-95
2023/04/27 09:28:00;;;;;;;8.65;5.20;;;;;;;11.52;56.29;102003.56;4970971;28;20388;-96
2023/04/27 09:30:26;;;;;;;;;;;;;;;11.70;59.52;102005.97;4970767;28;20061;-95
2023/04/27 09:33:01;;;;;;;10.40;5.10;;;;;;;11.74;55.03;102005.25;4970281;28;19917;-96
2023/04/27 09:35:28;;;;;;;9.38;5.35;;;;;;;11.60;50.26;101997.81;4972538;28;20018;-96
2023/04/27 09:37:55;;;;;;;8.65;5.20;;;;;;;11.39;55.71;101994.38;4972619;28;20019;-95
2023/04/27 09:40:46;;;;;;;;;;;;;;;;;;;;;
2023/04/27 09:43:12;;;;;;;9.98;5.20;;;;;;;11.51;52.83;101996.56;5215770;22;20058;-64
2023/04/27 09:45:41;;;;;;;9.57;5.60;;;;;;;11.47;49.29;101993.84;5019366;22;20085;-96
2023/04/27 09:48:07;;;;;;;8.98;5.22;;;;;;;11.47;53.34;101992.94;4992546;28;20061;-95
2023/04/27 09:53:15;;;;;;;8.60;5.05;;;;;;;11.71;52.92;101989.50;5022370;23;20053;-96
2023/04/27 09:56:07;;;;;;;9.65;5.03;;;;;;;11.89;52.15;101995.41;5011733;28;20038;-96
2023/04/27 09:58:55;;;;;;;10.40;5.10;;;;;;;11.99;53.13;101992.31;4997137;28;20068;-96
2023/04/27 10:01:29;;;;;;;9.10;5.60;;;;;;;12.26;50.99;101983.66;4999254;28;20042;-96
2023/04/27 10:04:25;;;;;;;8.65;5.80;;;;;;;12.32;50.02;101986.50;4993968;28;20870;-96
2023/04/27 10:07:01;;;;;;;9.93;5.20;;;;;;;12.28;49.99;101983.72;5006358;28;20042;-96
2023/04/27 10:09:43;;;;;;;8.52;5.10;;;;;;;12.27;51.17;101988.06;5003754;28;20086;-96
2023/04/27 10:12:32;;;;;;;9.57;5.32;;;;;;;12.16;50.16;101976.34;5000883;28;20022;-96
2023/04/27 10:14:59;;;;;;;8.77;6.20;;;;;;;12.22;52.42;101989.63;5012188;28;20053;-96
2023/04/27 10:17:28;;;;;;;10.18;5.50;;;;;;;12.28;50.59;101983.72;5005279;28;20104;-96
2023/04/27 10:19:56;;;;;;;;;;;;;;;12.34;53.62;101989.19;5013345;28;20021;-96
2023/04/27 10:22:26;;;;;;;10.13;5.90;;;;;;;12.21;47.06;101986.94;4999759;28;19941;-96
2023/04/27 10:25:01;;;;;;;9.18;5.43;;;;;;;12.14;48.87;101991.09;5007533;28;20093;-96
2023/04/27 10:27:46;;;;;;;9.77;5.57;;;;;;;12.07;47.51;101996.94;5002107;28;20023;-96
2023/04/27 10:30:38;;;;;;;11.35;6.25;;;;;;;12.05;50.68;101998.59;4993985;28;20070;-96
2023/04/27 10:33:11;;;;;;;10.20;6.03;;;;;;;12.16;49.26;101987.69;5000571;28;20026;-96
2023/04/27 10:36:36;;;;;;;11.50;5.80;;;;;;;12.29;49.37;101989.00;5001355;28;20035;-96
2023/04/27 10:39:25;;;;;;;10.38;5.72;;;;;;;12.20;46.97;101985.19;5004375;28;20106;-96
2023/04/27 10:41:57;;;;;;;13.43;6.20;;;;;;;12.14;48.52;101981.53;5004625;28;20042;-96
2023/04/27 10:44:31;;;;;;;9.73;5.75;;;;;;;12.22;46.74;101973.94;5004421;28;20033;-96
2023/04/27 10:47:11;;;;;;;10.30;5.72;;;;;;;12.25;45.83;101979.31;5005041;28;20073;-96
2023/04/27 10:49:39;;;;;;;11.43;5.93;;;;;;;12.30;45.49;101979.47;5015604;28;20094;-96
2023/04/27 10:52:08;;;;;;;10.68;6.00;;;;;;;12.40;49.88;101972.78;4996397;28;20045;-96
2023/04/27 10:55:22;;;;;;;11.65;6.25;;;;;;;12.56;48.32;101979.44;5004083;28;20034;-96
2023/04/27 10:57:55;;;;;;;8.95;5.45;;;;;;;12.75;49.34;101960.03;5000059;28;20030;-96
2023/04/27 11:00:31;;;;;;;8.75;5.70;;;;;;;12.92;47.07;101960.56;5006298;28;20035;-96
2023/04/27 11:06:13;;;;;;;9.75;6.00;;;;;;;13.14;49.09;101949.06;5016487;28;20093;-96
2023/04/27 11:09:11;;;;;;;9.77;6.15;;;;;;;13.27;48.21;101948.59;5002699;28;20007;-96
2023/04/27 11:11:48;;;;;;;10.65;5.80;;;;;;;13.36;45.67;101945.41;5007008;28;20034;-96
2023/04/27 11:14:30;;;;;;;8.80;6.13;;;;;;;13.42;43.93;101934.22;5002902;28;20030;-96
2023/04/27 11:17:03;;;;;;;9.82;6.20;;;;;;;13.49;45.41;101928.31;4986011;28;20073;-96
2023/04/27 11:19:46;;;;;;;9.35;5.95;;;;;;;13.64;43.02;101940.97;5017994;28;20030;-96
2023/04/27 11:22:21;;;;;;;11.57;6.18;;;;;;;13.61;41.87;101930.41;4986332;28;20038;-96
2023/04/27 11:24:51;;;;;;;10.32;6.65;;;;;;;13.49;43.04;101925.69;4992474;28;20045;-96
2023/04/27 11:27:24;;;;;;;10.18;6.38;;;;;;;13.45;41.69;101921.22;5007323;28;20034;-96
2023/04/27 11:29:53;;;;;;;10.68;6.47;;;;;;;13.53;44.58;101925.81;4999845;28;20033;-97
2023/04/27 11:32:22;;;;;;;11.40;6.60;;;;;;;13.65;44.04;101929.66;4983039;28;20042;-96
2023/04/27 11:34:51;;;;;;;;;;;;;;;13.82;45.00;101931.00;4984333;28;20025;-96
2023/04/27 11:37:25;;;;;;;11.63;6.70;;;;;;;13.79;42.63;101915.22;4999581;28;19913;-96
2023/04/27 11:40:18;;;;;;;9.27;6.03;;;;;;;13.86;43.46;101913.63;5016924;28;20025;-96
2023/04/27 11:42:46;;;;;;;9.95;6.15;;;;;;;13.93;42.87;101909.44;4984553;28;20031;-96
2023/04/27 11:45:13;;;;;;;10.18;6.18;;;;;;;13.92;42.80;101905.94;4988909;28;20026;-96
2023/04/27 11:47:46;;;;;;;9.65;6.43;;;;;;;14.15;45.29;101910.91;5008941;28;20046;-96
2023/04/27 11:50:14;;;;;;;9.85;5.95;;;;;;;14.15;40.50;101903.03;5003238;28;20023;-96
2023/04/27 11:52:40;;;;;;;9.60;6.20;;;;;;;14.10;45.49;101910.78;4982554;28;20060;-96
2023/04/27 11:55:09;;;;;;;10.38;6.43;;;;;;;14.33;43.51;101910.50;4996136;28;20017;-96
2023/04/27 11:57:37;;;;;;;;;;;;;;;14.63;47.60;101917.34;4978114;28;20065;-96
2023/04/27 12:00:13;;;;;;;10.68;6.38;;;;;;;14.74;40.62;101905.41;4997160;28;19913;-96
2023/04/27 12:02:42;;;;;;;9.23;5.75;;;;;;;14.69;42.73;101907.91;4995195;28;20049;-96
2023/04/27 12:05:11;;;;;;;9.05;5.97;;;;;;;14.55;40.17;101906.66;4987676;28;20029;-96
2023/04/27 12:07:57;;;;;;;9.80;6.10;;;;;;;14.53;43.03;101893.50;4998927;28;20018;-96
2023/04/27 12:10:25;;;;;;;9.07;6.38;;;;;;;14.61;41.02;101898.94;4993370;28;20021;-96
2023/04/27 12:12:50;;;;;;;10.38;6.60;;;;;;;14.55;41.00;101891.81;4996788;28;20026;-96
2023/04/27 12:15:18;;;;;;;10.50;6.47;;;;;;;14.46;40.30;101899.47;4993344;28;20122;-96
2023/04/27 12:17:46;;;;;;;9.70;6.40;;;;;;;14.54;42.00;101891.75;4998194;28;20094;-96
2023/04/27 12:20:20;;;;;;;10.52;5.97;;;;;;;14.67;40.47;101887.72;4994017;28;20040;-96
2023/04/27 12:22:46;;;;;;;10.00;6.15;;;;;;;14.82;42.67;101876.72;4999781;28;20034;-96
2023/04/27 12:25:11;;;;;;;9.27;6.15;;;;;;;15.08;41.47;101885.19;4990053;28;20023;-96
2023/04/27 12:27:37;;;;;;;10.75;6.35;;;;;;;15.28;41.14;101882.97;4981309;28;20055;-96
2023/04/27 12:30:03;;;;;;;9.85;6.13;;;;;;;15.27;39.07;101889.94;4981652;28;20030;-96
2023/04/27 12:32:33;;;;;;;9.95;6.22;;;;;;;15.23;40.94;101876.72;4979226;28;20026;-96
2023/04/27 12:34:58;;;;;;;10.18;6.05;;;;;;;15.34;42.51;101879.56;4988162;28;20029;-95
2023/04/27 12:37:24;;;;;;;9.75;6.53;;;;;;;15.47;41.69;101882.50;4974608;28;20596;-95
2023/04/27 12:39:53;;;;;;;11.18;6.22;;;;;;;15.60;39.04;101877.50;4977307;28;21340;-96
2023/04/27 12:42:22;;;;;;;11.07;6.65;;;;;;;15.53;35.91;101879.09;5003610;23;20238;-65
2023/04/27 12:44:53;;;;;;;10.50;6.72;;;;;;;15.50;40.23;101876.41;5070470;23;20054;-96
2023/04/27 12:47:21;;;;;;;9.98;6.88;;;;;;;15.62;40.22;101873.13;5023458;23;20076;-70
2023/04/27 12:49:46;;;;;;;11.38;6.90;;;;;;;15.49;35.98;101874.63;5066432;23;20054;-96
2023/04/27 12:52:12;;;;;;;12.20;6.53;;;;;;;15.33;36.40;101872.56;5028440;28;20050;-96
2023/04/27 12:54:37;;;;;;;9.80;6.32;;;;;;;15.17;35.82;101880.13;5008631;28;20029;-96
2023/04/27 12:57:12;;;;;;;11.57;6.60;;;;;;;14.97;37.67;101874.44;4985990;28;20032;-96
2023/04/27 12:59:37;;;;;;;9.70;6.30;;;;;;;15.01;38.76;101868.41;5201532;23;20058;-75
2023/04/27 13:02:03;;;;;;;10.63;6.90;;;;;;;15.03;36.44;101866.69;5177656;23;20161;-72
2023/04/27 13:04:29;;;;;;;9.20;6.18;;;;;;;15.12;39.92;101866.91;5184852;22;20596;-71
2023/04/27 13:06:58;;;;;;;9.77;6.07;;;;;;;15.08;37.12;101857.19;4994151;28;20029;-71
2023/04/27 13:11:57;;;;;;;13.50;7.18;;;;;;;15.12;40.62;101864.28;5268294;23;20069;-71
2023/04/27 13:14:23;;;;;;;11.10;6.93;;;;;;;15.23;37.64;101863.59;5200184;23;20449;-72
2023/04/27 13:16:48;;;;;;;10.55;6.93;;;;;;;15.35;38.09;101863.88;5184054;23;20065;-72
2023/04/27 13:19:14;;;;;;;11.32;7.07;;;;;;;15.44;40.66;101861.41;5145200;23;20058;-72
2023/04/27 13:21:39;;;;;;;11.55;6.80;;;;;;;15.57;40.52;101854.66;5062273;23;20495;-74
2023/04/27 13:24:05;;;;;;;13.80;7.50;;;;;;;15.68;40.23;101849.59;5364485;22;20226;-72
2023/04/27 13:26:31;;;;;;;11.70;7.00;;;;;;;15.64;40.80;101850.38;5219369;22;20484;-96
2023/04/27 13:28:56;;;;;;;8.93;6.07;;;;;;;15.60;38.35;101838.09;5008645;23;21177;-70
2023/04/27 13:31:22;;;;;;;10.68;6.95;;;;;;;15.63;38.95;101839.00;5112421;22;20943;-96